»·PEaware :: N105CX KTEB-KVNY

N105CX :: KTEB-KVNY

FLIGHT INFORMATION

Flight Status: Arrived
Operator: Privately registered:
United States
More flights under this callsign
Pilot: Chris A. (85)
Aircraft: GULFSTREAM G-1159D GULFSTREAM 5
(GLF5)
More flights by this aircraft type
Origin: KTEB Teterboro
United States
Destination: KVNY Van Nuys
United States
More flights between these airports :: More routes between these airports
Route: +NEWEL J60 GSH JAVAS TKO HLC J64 PUB TAHIB PGS WELUM JANNY3
File this flight plan on PilotEdge
Remarks: PBN / A1B1C1D1S1S2 DOF / 180107 REG / N105CX EET / KZOB0033 KZAU0116 KZMP0210 KZDV0244 KZLA0413 SEL / BEDG PER / C RMK / TCAS
Altitude:
(Current/Filed)
47,000ft
Speed:
(Current/Filed)
479kts
Departed: 07-Jan-18 07:05 PM
Arrived: 07-Jan-18 09:44 PM
Distance/Time
Traveled:
2128nm/2:39
Distance/Time
To Go:
Arrived

Flight Plot

Page will automatically refresh every two minutes.

Flight plan parsing failed; only flown route is shown


Map Options




Map Legend


Flown Route
Filed Route
Departure Airport
Arrival Airport
Navaid (VOR, NDB)
Fix

Horizontal Profiles

Position Reports

Time Latitude Longitude Heading Altitude Ground
Speed
07-Jan-18 19:10 39.985952 -97.347450 259 47084ft 440kts
07-Jan-18 19:11 39.956017 -97.502084 259 47087ft 440kts
07-Jan-18 19:12 39.925806 -97.656953 259 47088ft 440kts
07-Jan-18 19:13 39.895455 -97.811366 259 47093ft 440kts
07-Jan-18 19:14 39.870285 -97.939952 259 47092ft 440kts
07-Jan-18 19:15 39.834212 -98.120229 259 47090ft 440kts
07-Jan-18 19:16 39.802791 -98.274183 256 47088ft 442kts
07-Jan-18 19:17 39.770869 -98.392890 254 47088ft 443kts
07-Jan-18 19:18 39.722577 -98.568535 254 47091ft 443kts
07-Jan-18 19:19 39.688233 -98.693918 255 47092ft 442kts
07-Jan-18 19:20 39.640512 -98.869935 254 47101ft 442kts
07-Jan-18 19:21 39.606202 -98.995039 254 47110ft 442kts
07-Jan-18 19:22 39.564832 -99.144864 254 47121ft 441kts
07-Jan-18 19:23 39.523119 -99.294976 254 47134ft 442kts
07-Jan-18 19:24 39.481371 -99.444332 254 47144ft 442kts
07-Jan-18 19:25 39.439270 -99.594085 254 47147ft 442kts
07-Jan-18 19:26 39.397140 -99.743092 254 47149ft 442kts
07-Jan-18 19:27 39.355036 -99.892016 254 47149ft 441kts
07-Jan-18 19:28 39.312371 -100.041166 253 47150ft 441kts
07-Jan-18 19:29 39.269539 -100.189514 253 47152ft 441kts
07-Jan-18 19:30 39.234316 -100.340603 259 47157ft 438kts
07-Jan-18 19:31 39.202456 -100.492240 258 47162ft 438kts
07-Jan-18 19:32 39.170192 -100.643409 258 47167ft 438kts
07-Jan-18 19:33 39.138228 -100.795119 258 47174ft 437kts
07-Jan-18 19:34 39.105943 -100.946068 258 47176ft 437kts
07-Jan-18 19:35 39.073266 -101.097253 258 47177ft 437kts
07-Jan-18 19:36 39.040460 -101.247813 258 47176ft 437kts
07-Jan-18 19:37 39.007433 -101.398294 258 47175ft 437kts
07-Jan-18 19:38 38.974125 -101.549009 258 47174ft 437kts
07-Jan-18 19:39 38.940712 -101.699177 258 47174ft 437kts
07-Jan-18 19:40 38.907116 -101.849159 258 47181ft 437kts
07-Jan-18 19:41 38.873241 -101.999388 258 47183ft 437kts
07-Jan-18 19:42 38.839275 -102.149023 257 47185ft 437kts
07-Jan-18 19:43 38.805077 -102.298702 257 47185ft 436kts
07-Jan-18 19:44 38.770850 -102.447532 257 47191ft 436kts
07-Jan-18 19:45 38.736424 -102.596268 256 47191ft 435kts
07-Jan-18 19:46 38.701729 -102.745202 256 47191ft 435kts
07-Jan-18 19:47 38.666978 -102.893430 256 47192ft 435kts
07-Jan-18 19:48 38.631951 -103.041894 256 47193ft 435kts
07-Jan-18 19:49 38.596875 -103.189631 256 47194ft 434kts
07-Jan-18 19:50 38.561634 -103.337140 256 47195ft 434kts
07-Jan-18 19:51 38.526102 -103.484945 256 47196ft 434kts
07-Jan-18 19:52 38.490550 -103.631929 256 47201ft 434kts
07-Jan-18 19:53 38.454788 -103.778880 256 47204ft 434kts
07-Jan-18 19:54 38.418749 -103.926073 256 47204ft 434kts
07-Jan-18 19:55 38.382809 -104.072673 256 47200ft 433kts
07-Jan-18 19:56 38.346513 -104.219431 255 47202ft 433kts
07-Jan-18 19:57 38.309932 -104.365490 255 47200ft 433kts
07-Jan-18 19:58 38.272474 -104.511155 255 47199ft 433kts
07-Jan-18 19:59 38.233959 -104.656725 254 47200ft 433kts
07-Jan-18 20:00 38.195405 -104.801492 254 47208ft 432kts
07-Jan-18 20:01 38.157137 -104.946471 254 47215ft 431kts
07-Jan-18 20:02 38.118839 -105.090617 254 47219ft 431kts
07-Jan-18 20:03 38.080302 -105.234367 254 47244ft 430kts
07-Jan-18 20:04 38.041498 -105.378137 254 47257ft 429kts
07-Jan-18 20:05 38.002684 -105.521088 254 47271ft 429kts
07-Jan-18 20:06 37.963701 -105.663851 254 47286ft 429kts
07-Jan-18 20:07 37.924454 -105.806791 254 47302ft 428kts
07-Jan-18 20:08 37.885322 -105.948533 253 47320ft 428kts
07-Jan-18 20:09 37.845609 -106.091603 253 47330ft 428kts
07-Jan-18 20:10 37.805994 -106.233550 253 47348ft 428kts
07-Jan-18 20:11 37.766217 -106.375317 253 47358ft 428kts
07-Jan-18 20:12 37.726176 -106.517265 253 47377ft 428kts
07-Jan-18 20:13 37.686136 -106.658458 253 47402ft 427kts
07-Jan-18 20:14 37.645803 -106.799933 253 47426ft 427kts
07-Jan-18 20:15 37.605468 -106.940676 253 47419ft 427kts
07-Jan-18 20:16 37.565023 -107.081070 253 47413ft 426kts
07-Jan-18 20:17 37.524303 -107.221685 253 47355ft 426kts
07-Jan-18 20:18 37.483631 -107.361416 253 47346ft 425kts
07-Jan-18 20:19 37.456206 -107.455232 253 47349ft 425kts
07-Jan-18 20:20 37.417924 -107.585654 252 47358ft 425kts
07-Jan-18 20:21 37.383611 -107.702000 253 47355ft 428kts
07-Jan-18 20:22 37.341973 -107.842830 252 47346ft 429kts
07-Jan-18 20:23 37.300271 -107.982806 252 47344ft 426kts
07-Jan-18 20:24 37.258497 -108.122237 252 47343ft 429kts
07-Jan-18 20:25 37.216363 -108.262315 252 47343ft 427kts
07-Jan-18 20:26 37.174407 -108.401253 252 47347ft 427kts
07-Jan-18 20:27 37.132340 -108.540707 252 47346ft 426kts
07-Jan-18 20:28 37.089843 -108.679464 252 47347ft 427kts
07-Jan-18 20:29 37.047721 -108.817645 253 47356ft 423kts
07-Jan-18 20:30 37.009162 -108.957174 253 47354ft 424kts
07-Jan-18 20:31 36.970328 -109.095881 253 47360ft 422kts
07-Jan-18 20:32 36.935949 -109.218079 253 47366ft 425kts
07-Jan-18 20:33 36.897963 -109.354591 253 47370ft 423kts
07-Jan-18 20:34 36.859013 -109.492862 253 47374ft 423kts
07-Jan-18 20:35 36.819729 -109.631534 253 47380ft 422kts
07-Jan-18 20:36 36.780561 -109.768964 253 47377ft 420kts
07-Jan-18 20:37 36.741220 -109.906175 253 47370ft 422kts
07-Jan-18 20:38 36.701553 -110.043879 253 47358ft 418kts
07-Jan-18 20:39 36.662063 -110.180116 253 47355ft 418kts
07-Jan-18 20:40 36.622098 -110.317290 252 47346ft 421kts
07-Jan-18 20:41 36.582315 -110.453529 253 47341ft 418kts
07-Jan-18 20:42 36.542268 -110.589357 252 47336ft 419kts
07-Jan-18 20:43 36.502060 -110.725635 252 47330ft 417kts
07-Jan-18 20:44 36.462014 -110.860653 253 47322ft 417kts
07-Jan-18 20:45 36.421845 -110.995431 252 47316ft 417kts
07-Jan-18 20:46 36.381245 -111.130915 252 47313ft 417kts
07-Jan-18 20:47 36.340646 -111.265822 252 47316ft 418kts
07-Jan-18 20:48 36.299850 -111.400495 252 47315ft 415kts
07-Jan-18 20:49 36.259129 -111.534481 251 47316ft 414kts
07-Jan-18 20:50 36.218344 -111.667849 252 47321ft 415kts
07-Jan-18 20:51 36.177214 -111.801725 251 47325ft 414kts
07-Jan-18 20:52 36.136286 -111.934596 251 47328ft 414kts
07-Jan-18 20:53 36.094906 -112.068129 251 47328ft 413kts
07-Jan-18 20:54 36.053678 -112.200521 251 47331ft 415kts
07-Jan-18 20:55 36.011962 -112.334031 251 47330ft 415kts
07-Jan-18 20:56 35.970034 -112.467395 251 47326ft 417kts
07-Jan-18 20:57 35.927929 -112.600799 251 47320ft 416kts
07-Jan-18 20:58 35.886215 -112.732515 251 47318ft 412kts
07-Jan-18 20:59 35.844070 -112.865066 250 47309ft 413kts
07-Jan-18 21:00 35.801813 -112.997245 251 47304ft 415kts
07-Jan-18 21:01 35.759344 -113.129397 250 47290ft 411kts
07-Jan-18 21:02 35.717261 -113.260656 250 47280ft 411kts
07-Jan-18 21:03 35.675114 -113.390473 250 47272ft 409kts
07-Jan-18 21:04 35.632642 -113.520764 251 47257ft 409kts
07-Jan-18 21:05 35.606062 -113.655610 259 47244ft 407kts
07-Jan-18 21:06 35.582614 -113.791876 259 47240ft 407kts
07-Jan-18 21:07 35.559100 -113.927638 259 47239ft 407kts
07-Jan-18 21:08 35.535917 -114.063352 259 47226ft 406kts
07-Jan-18 21:09 35.512393 -114.199353 259 47216ft 406kts
07-Jan-18 21:10 35.488707 -114.334784 258 47203ft 406kts
07-Jan-18 21:11 35.464860 -114.470048 258 47188ft 406kts
07-Jan-18 21:12 35.440981 -114.605731 258 47172ft 406kts
07-Jan-18 21:13 35.416798 -114.740929 258 47173ft 407kts
07-Jan-18 21:14 35.392224 -114.876622 258 47177ft 407kts
07-Jan-18 21:15 35.360771 -115.009598 251 47190ft 408kts
07-Jan-18 21:16 35.322333 -115.140046 251 47192ft 407kts
07-Jan-18 21:17 35.284040 -115.270976 251 47195ft 407kts
07-Jan-18 21:18 35.246159 -115.401560 251 47198ft 408kts
07-Jan-18 21:19 35.208173 -115.532752 251 47202ft 408kts
07-Jan-18 21:20 35.169788 -115.663190 251 47205ft 408kts
07-Jan-18 21:21 35.130810 -115.793325 248 47207ft 408kts
07-Jan-18 21:22 35.083816 -115.894396 240 47208ft 411kts
07-Jan-18 21:23 35.013659 -116.032913 239 46900ft 415kts
07-Jan-18 21:24 34.953391 -116.150831 239 44773ft 401kts
07-Jan-18 21:25 34.899576 -116.266243 246 42549ft 382kts
07-Jan-18 21:26 34.855117 -116.382887 246 40155ft 377kts
07-Jan-18 21:27 34.817815 -116.478771 245 38150ft 375kts
07-Jan-18 21:28 34.783936 -116.600500 258 35753ft 390kts
07-Jan-18 21:29 34.768128 -116.756399 260 32957ft 407kts
07-Jan-18 21:30 34.756733 -116.872254 260 30960ft 427kts
07-Jan-18 21:31 34.741866 -117.017708 260 28558ft 439kts
07-Jan-18 21:32 34.726319 -117.168507 259 26161ft 456kts
07-Jan-18 21:33 34.710775 -117.322039 259 23754ft 447kts
07-Jan-18 21:34 34.696071 -117.462482 258 21354ft 396kts
07-Jan-18 21:35 34.682416 -117.590310 258 19038ft 366kts
07-Jan-18 21:36 34.669879 -117.709212 259 16840ft 345kts
07-Jan-18 21:37 34.657752 -117.822273 259 14694ft 330kts
07-Jan-18 21:38 34.646026 -117.931871 260 13289ft 323kts
07-Jan-18 21:39 34.634144 -118.038992 260 11935ft 317kts
07-Jan-18 21:40 34.615083 -118.141078 253 10629ft 296kts
07-Jan-18 21:41 34.593408 -118.235493 253 9383ft 289kts
07-Jan-18 21:42 34.572289 -118.329266 253 8282ft 286kts
07-Jan-18 21:43 34.551495 -118.421843 253 8065ft 285kts
07-Jan-18 21:44 34.512132 -118.499631 209 7011ft 271kts
07-Jan-18 21:45 34.442774 -118.513232 172 5705ft 249kts
07-Jan-18 21:46 34.377112 -118.506257 174 5005ft 222kts
07-Jan-18 21:47 34.323049 -118.501016 173 4781ft 175kts
07-Jan-18 21:48 34.277640 -118.496160 175 2814ft 168kts
07-Jan-18 21:49 34.234058 -118.492577 174 1290ft 147kts
07-Jan-18 21:50 34.201308 -118.489655 175 810ft 32kts
07-Jan-18 21:51 34.197090 -118.489745 279 810ft 6kts
07-Jan-18 21:52 34.199344 -118.490217 355 810ft 7kts
07-Jan-18 21:53 34.201800 -118.490547 341 810ft 13kts
07-Jan-18 21:54 34.203000 -118.491958 2 810ft 1kts
07-Jan-18 21:55 34.203067 -118.491958 359 810ft 0kts
07-Jan-18 21:56 34.203067 -118.491958 359 810ft 0kts
07-Jan-18 21:57 34.203067 -118.491958 359 810ft 0kts

Navigation Log

Ident Type
Flight plan parsing failed, navigation log unavailable